Time;durP1;ratioP1;P1;durP2;ratioP2;P2;SDS_P1;SDS_P2;PMS_P1;PMS_P2;Temp;Humidity;BMP_temperature;BMP_pressure;BME280_temperature;BME280_humidity;BME280_pressure;Samples;Min_cycle;Max_cycle;Signal;HPM_P1;HPM_P2
2023/11/01 00:01:25;;;;;;;;;2.00;1.00;;;;;17.17;100.00;100396.97;4968290;28;69941;-73
2023/11/01 00:03:51;;;;;;;;;3.00;2.00;;;;;17.21;100.00;100401.34;4965327;28;49440;-72
2023/11/01 00:06:16;;;;;;;;;4.33;2.00;;;;;17.22;100.00;100388.88;4965713;28;62500;-71
2023/11/01 00:08:41;;;;;;;;;3.00;2.00;;;;;17.24;100.00;100387.03;4966488;28;60211;-72
2023/11/01 00:11:07;;;;;;;;;2.00;2.00;;;;;17.19;100.00;100394.28;4965526;28;66036;-71
2023/11/01 00:13:33;;;;;;;;;6.00;1.00;;;;;17.19;100.00;100378.25;4966258;28;45734;-73
2023/11/01 00:15:58;;;;;;;;;2.00;2.00;;;;;17.20;100.00;100378.22;4966692;28;45700;-74
2023/11/01 00:18:24;;;;;;;;;4.33;2.33;;;;;17.21;100.00;100377.34;4965049;28;59043;-71
2023/11/01 00:20:49;;;;;;;;;5.67;2.00;;;;;17.22;100.00;100372.88;4967561;28;45425;-73
2023/11/01 00:23:14;;;;;;;;;1.33;1.33;;;;;17.19;100.00;100372.94;4965746;28;48305;-73
2023/11/01 00:25:40;;;;;;;;;3.33;2.00;;;;;17.18;100.00;100369.38;4963453;28;46699;-72
2023/11/01 00:28:05;;;;;;;;;2.00;1.00;;;;;17.19;100.00;100370.25;4962846;28;45463;-72
2023/11/01 00:30:31;;;;;;;;;6.33;1.67;;;;;17.15;100.00;100369.47;4965193;28;51606;-72
2023/11/01 00:32:56;;;;;;;;;5.67;2.00;;;;;17.16;100.00;100376.56;4955794;28;49989;-73
2023/11/01 00:35:21;;;;;;;;;2.33;2.00;;;;;17.14;100.00;100381.03;4959820;28;72312;-72
2023/11/01 00:37:47;;;;;;;;;3.33;3.00;;;;;17.12;100.00;100377.53;4966776;28;71512;-73
2023/11/01 00:40:14;;;;;;;;;2.00;2.00;;;;;17.09;100.00;100366.91;4965310;28;45434;-72
2023/11/01 00:42:40;;;;;;;;;4.00;1.00;;;;;17.09;100.00;100369.59;4966312;28;45584;-72
2023/11/01 00:45:06;;;;;;;;;5.33;2.33;;;;;17.07;100.00;100363.44;4964566;28;48579;-69
2023/11/01 00:47:31;;;;;;;;;4.00;2.00;;;;;17.09;100.00;100358.91;4966113;28;45426;-71
2023/11/01 00:49:57;;;;;;;;;6.00;2.33;;;;;17.13;100.00;100368.63;4967817;28;45501;-70
2023/11/01 00:52:22;;;;;;;;;2.00;2.00;;;;;17.12;100.00;100356.19;4970859;28;45461;-70
2023/11/01 00:54:48;;;;;;;;;6.00;3.00;;;;;17.11;100.00;100359.78;4973329;28;45617;-71
2023/11/01 00:57:13;;;;;;;;;3.67;1.00;;;;;17.10;100.00;100363.38;4972493;28;72923;-69
2023/11/01 00:59:38;;;;;;;;;3.33;1.00;;;;;17.09;100.00;100369.59;4973093;28;67205;-68
2023/11/01 01:02:04;;;;;;;;;3.33;2.00;;;;;17.07;100.00;100360.75;4974127;28;45625;-68
2023/11/01 01:04:29;;;;;;;;;1.00;1.00;;;;;17.04;100.00;100350.16;4963781;28;46563;-70
2023/11/01 01:06:55;;;;;;;;;4.00;3.00;;;;;17.02;100.00;100362.66;4973618;28;45442;-70
2023/11/01 01:09:20;;;;;;;;;3.00;2.00;;;;;17.02;100.00;100360.84;4972831;28;45280;-68
2023/11/01 01:11:45;;;;;;;;;4.00;1.00;;;;;16.98;100.00;100359.16;4971558;28;45525;-69
2023/11/01 01:14:11;;;;;;;;;4.67;2.00;;;;;17.00;100.00;100367.16;4976121;28;45737;-69
2023/11/01 01:16:36;;;;;;;;;4.00;2.33;;;;;17.02;100.00;100354.66;4971388;28;45354;-69
2023/11/01 01:19:03;;;;;;;;;1.33;0.00;;;;;17.02;100.00;100362.66;4963566;28;45372;-68
2023/11/01 01:21:28;;;;;;;;;1.00;1.00;;;;;17.03;100.00;100351.94;4953261;28;45509;-68
2023/11/01 01:23:54;;;;;;;;;9.67;1.33;;;;;17.04;100.00;100350.16;4969105;28;45542;-70
2023/11/01 01:26:19;;;;;;;;;3.00;1.67;;;;;17.08;100.00;100357.16;4973369;28;45566;-69
2023/11/01 01:28:45;;;;;;;;;3.00;1.67;;;;;17.10;100.00;100347.38;4974090;28;69108;-69
2023/11/01 01:31:10;;;;;;;;;4.00;2.33;;;;;17.11;100.00;100341.09;4974273;28;45737;-69
2023/11/01 01:33:35;;;;;;;;;1.67;1.00;;;;;17.14;100.00;100338.34;4967867;28;45696;-68
2023/11/01 01:36:01;;;;;;;;;5.67;2.00;;;;;17.21;100.00;100339.09;4971960;28;67657;-70
2023/11/01 01:38:26;;;;;;;;;1.00;1.00;;;;;17.20;100.00;100337.31;4974033;28;69250;-69
2023/11/01 01:40:51;;;;;;;;;3.33;1.33;;;;;17.19;100.00;100324.91;4973008;28;65312;-68
2023/11/01 01:43:24;;;;;;;;;1.67;1.00;;;;;17.25;100.00;100324.75;4972642;28;72046;-68
2023/11/01 01:46:14;;;;;;;;;7.00;2.00;;;;;17.27;100.00;100330.94;4986151;28;45368;-67
2023/11/01 01:48:40;;;;;;;;;2.00;2.00;;;;;17.26;100.00;100326.53;4972972;28;45459;-69
2023/11/01 01:51:06;;;;;;;;;2.33;1.00;;;;;17.27;100.00;100320.28;4990942;28;45633;-70
2023/11/01 01:53:32;;;;;;;;;2.00;2.00;;;;;17.28;100.00;100309.56;4975986;28;47289;-68
2023/11/01 01:55:58;;;;;;;;;4.00;1.00;;;;;17.27;100.00;100312.25;4976521;28;45241;-68
2023/11/01 01:58:26;;;;;;;;;2.00;2.00;;;;;17.29;100.00;100310.44;4973275;28;46307;-69
2023/11/01 02:00:51;;;;;;;;;3.00;1.67;;;;;17.31;100.00;100313.03;4970388;28;46814;-68
2023/11/01 02:03:16;;;;;;;;;6.33;1.67;;;;;17.27;100.00;100305.13;4972808;28;46414;-70
2023/11/01 02:05:42;;;;;;;;;4.00;2.00;;;;;17.31;100.00;100295.28;4972368;28;58156;-69
2023/11/01 02:08:07;;;;;;;;;4.00;2.67;;;;;17.32;100.00;100294.34;4972975;28;45538;-69
2023/11/01 02:10:33;;;;;;;;;4.00;1.00;;;;;17.32;100.00;100288.13;4975885;28;62575;-69
2023/11/01 02:13:09;;;;;;;;;3.33;1.00;;;;;17.32;100.00;100285.47;4969380;28;76244;-70
2023/11/01 02:15:34;;;;;;;;;3.67;1.67;;;;;17.32;100.00;100280.13;4970249;28;47041;-68
2023/11/01 02:17:59;;;;;;;;;3.00;1.00;;;;;17.31;100.00;100276.59;4976044;28;63626;-69
2023/11/01 02:20:26;;;;;;;;;4.33;2.00;;;;;17.33;100.00;100273.88;4975019;28;67358;-69
2023/11/01 02:22:55;;;;;;;;;6.67;2.00;;;;;17.33;100.00;100264.06;4970416;28;46747;-70
2023/11/01 02:25:21;;;;;;;;;3.67;1.67;;;;;17.34;100.00;100260.47;4973700;28;45486;-68
2023/11/01 02:27:46;;;;;;;;;1.33;1.33;;;;;17.36;100.00;100253.31;4977103;28;45471;-68
2023/11/01 02:30:16;;;;;;;;;3.33;1.00;;;;;17.37;100.00;100251.53;4974770;28;45410;-69
2023/11/01 02:32:47;;;;;;;;;1.67;1.67;;;;;17.34;100.00;100249.81;4966635;28;45837;-68
2023/11/01 02:35:16;;;;;;;;;2.00;2.00;;;;;17.37;100.00;100257.75;4974915;28;47441;-68
2023/11/01 02:37:41;;;;;;;;;7.67;2.00;;;;;17.40;100.00;100240.75;4963458;28;45342;-68
2023/11/01 02:40:09;;;;;;;;;5.00;1.00;;;;;17.37;100.00;100227.53;4966274;28;60081;-71
2023/11/01 02:42:41;;;;;;;;;5.33;2.00;;;;;17.37;100.00;100219.50;4973759;28;45908;-68
2023/11/01 02:45:09;;;;;;;;;2.00;0.00;;;;;17.38;100.00;100224.81;4969749;28;45202;-70
2023/11/01 02:47:43;;;;;;;;;5.00;2.00;;;;;17.36;100.00;100213.28;4976761;28;45539;-67
2023/11/01 02:50:10;;;;;;;;;2.67;2.00;;;;;17.36;100.00;100215.06;4974992;28;45564;-69
2023/11/01 02:52:37;;;;;;;;;1.00;1.00;;;;;17.33;100.00;100213.38;4974325;28;45661;-70
2023/11/01 02:55:05;;;;;;;;;3.00;1.00;;;;;17.36;100.00;100217.72;4975674;28;45586;-68
2023/11/01 02:57:32;;;;;;;;;3.00;1.33;;;;;17.35;100.00;100211.53;4975080;28;45540;-69
2023/11/01 02:59:58;;;;;;;;;1.00;1.00;;;;;17.32;100.00;100200.09;4975079;28;45534;-68
2023/11/01 03:02:23;;;;;;;;;3.00;1.00;;;;;17.30;100.00;100197.44;4974254;28;45727;-70
2023/11/01 03:04:49;;;;;;;;;2.00;1.00;;;;;17.28;100.00;100194.81;4975982;28;48596;-69
2023/11/01 03:07:15;;;;;;;;;4.67;1.00;;;;;17.31;100.00;100184.97;4965682;28;45391;-69
2023/11/01 03:09:40;;;;;;;;;3.00;0.33;;;;;17.27;100.00;100185.06;4976004;28;45387;-68
2023/11/01 03:12:06;;;;;;;;;3.67;1.33;;;;;17.29;100.00;100185.00;4973614;28;46629;-71
2023/11/01 03:14:31;;;;;;;;;2.67;1.00;;;;;17.25;100.00;100186.88;4973324;28;45473;-68
2023/11/01 03:16:57;;;;;;;;;1.67;1.00;;;;;17.24;100.00;100173.59;4973662;28;58497;-70
2023/11/01 03:19:22;;;;;;;;;3.00;2.00;;;;;17.21;100.00;100176.34;4974186;28;63327;-69
2023/11/01 03:21:47;;;;;;;;;3.00;2.00;;;;;17.22;100.00;100173.63;4972043;28;73917;-69
2023/11/01 03:24:12;;;;;;;;;1.00;1.00;;;;;17.21;100.00;100179.03;4969974;28;73174;-69
2023/11/01 03:26:39;;;;;;;;;4.33;2.00;;;;;17.20;100.00;100159.44;4974045;28;70596;-71
2023/11/01 03:29:05;;;;;;;;;4.33;1.33;;;;;17.19;100.00;100171.03;4976185;28;45461;-69
2023/11/01 03:31:30;;;;;;;;;4.33;2.67;;;;;17.16;100.00;100164.94;4970713;28;45931;-68
2023/11/01 03:33:56;;;;;;;;;2.00;2.00;;;;;17.18;100.00;100163.06;4974782;28;71207;-69
2023/11/01 03:36:21;;;;;;;;;3.67;1.00;;;;;17.15;100.00;100168.47;4976471;28;45362;-69
2023/11/01 03:38:46;;;;;;;;;3.00;1.33;;;;;17.15;100.00;100171.16;4965993;28;65099;-70
2023/11/01 03:41:12;;;;;;;;;3.67;1.00;;;;;17.20;100.00;100156.78;4974956;28;66321;-71
2023/11/01 03:43:37;;;;;;;;;6.00;2.00;;;;;17.20;100.00;100156.78;4970891;28;68378;-69
2023/11/01 03:46:02;;;;;;;;;1.67;1.67;;;;;17.22;100.00;100168.28;4971595;28;45497;-69
2023/11/01 03:48:28;;;;;;;;;1.00;1.00;;;;;17.25;100.00;100152.19;4975108;28;45272;-71
2023/11/01 03:50:54;;;;;;;;;7.00;2.00;;;;;17.26;100.00;100151.28;4971989;28;46558;-68
2023/11/01 03:53:19;;;;;;;;;4.33;2.33;;;;;17.24;100.00;100150.44;4974204;28;45465;-71
2023/11/01 03:55:44;;;;;;;;;5.33;1.67;;;;;17.19;100.00;100133.69;4973371;28;64712;-69
2023/11/01 03:58:10;;;;;;;;;0.33;0.33;;;;;17.15;100.00;100137.38;4975821;28;46059;-71
2023/11/01 04:00:35;;;;;;;;;2.67;1.33;;;;;17.15;100.00;100134.72;4973268;28;73384;-69
2023/11/01 04:03:00;;;;;;;;;2.33;2.00;;;;;17.15;100.00;100132.03;4973777;28;68684;-69
2023/11/01 04:05:26;;;;;;;;;2.00;2.00;;;;;17.12;100.00;100120.56;4971914;28;45491;-70
2023/11/01 04:07:51;;;;;;;;;1.00;1.00;;;;;17.09;100.00;100113.50;4974275;28;63400;-68
2023/11/01 04:10:16;;;;;;;;;3.67;1.00;;;;;17.07;100.00;100119.81;4971223;28;73088;-69
2023/11/01 04:12:42;;;;;;;;;3.33;1.00;;;;;17.06;100.00;100115.41;4971635;28;68688;-70
2023/11/01 04:15:13;;;;;;;;;3.00;2.00;;;;;17.06;100.00;100107.41;4968164;28;69373;-70
2023/11/01 04:17:39;;;;;;;;;4.33;1.00;;;;;17.01;100.00;100108.41;4981413;28;45483;-68
2023/11/01 04:20:08;;;;;;;;;1.00;1.00;;;;;17.00;100.00;100108.44;4975464;28;46106;-69
2023/11/01 04:22:36;;;;;;;;;4.00;2.00;;;;;16.98;100.00;100108.47;4965998;28;45441;-69
2023/11/01 04:25:05;;;;;;;;;4.33;1.67;;;;;16.96;100.00;100093.44;4971132;28;45721;-70
2023/11/01 04:27:33;;;;;;;;;1.67;1.00;;;;;16.95;100.00;100100.56;4975063;28;45671;-70
2023/11/01 04:29:58;;;;;;;;;2.00;2.00;;;;;16.94;100.00;100093.47;4966875;28;45982;-70
2023/11/01 04:32:28;;;;;;;;;3.00;1.00;;;;;16.91;100.00;100084.69;4967243;28;71472;-70
2023/11/01 04:34:55;;;;;;;;;5.67;2.00;;;;;16.90;100.00;100080.28;4968789;28;45677;-68
2023/11/01 04:37:22;;;;;;;;;2.00;2.00;;;;;16.94;100.00;100065.94;4971474;28;45564;-68
2023/11/01 04:39:48;;;;;;;;;3.00;0.00;;;;;16.86;100.00;100075.94;4974691;28;46442;-68
2023/11/01 04:42:15;;;;;;;;;3.33;2.00;;;;;16.82;100.00;100072.47;4964178;28;45410;-68
2023/11/01 04:44:43;;;;;;;;;2.00;0.33;;;;;16.80;100.00;100063.63;4969703;28;45573;-68
2023/11/01 04:47:08;;;;;;;;;2.67;2.00;;;;;16.81;100.00;100060.06;4970477;28;45388;-68
2023/11/01 04:49:33;;;;;;;;;2.00;1.00;;;;;16.79;100.00;100061.03;4972208;28;47558;-70
2023/11/01 04:51:59;;;;;;;;;3.33;1.67;;;;;16.75;100.00;100058.44;4971227;28;45414;-70
2023/11/01 04:54:24;;;;;;;;;3.00;1.00;;;;;16.76;100.00;100065.50;4974217;28;45492;-69
2023/11/01 04:56:50;;;;;;;;;3.00;1.00;;;;;16.77;100.00;100063.72;4972348;28;60414;-69
2023/11/01 04:59:16;;;;;;;;;2.00;2.00;;;;;16.77;100.00;100055.72;4970374;28;75918;-68
2023/11/01 05:01:41;;;;;;;;;5.00;1.33;;;;;16.77;100.00;100051.25;4976635;28;45408;-70
2023/11/01 05:04:06;;;;;;;;;1.00;1.00;;;;;16.79;100.00;100050.34;4974502;28;45454;-70
2023/11/01 05:06:32;;;;;;;;;3.33;2.00;;;;;16.74;100.00;100042.47;4972344;28;45592;-70
2023/11/01 05:08:57;;;;;;;;;5.67;2.00;;;;;16.69;100.00;100031.03;4978580;28;46398;-68
2023/11/01 05:11:23;;;;;;;;;2.33;2.00;;;;;16.67;100.00;100036.41;4977023;28;73361;-69
2023/11/01 05:13:48;;;;;;;;;3.00;1.00;;;;;16.64;100.00;100038.28;4973894;28;62831;-69
2023/11/01 05:16:13;;;;;;;;;5.00;2.00;;;;;16.59;100.00;100027.72;4978849;28;45605;-69
2023/11/01 05:18:39;;;;;;;;;4.00;1.00;;;;;16.57;100.00;100029.56;4976988;28;74500;-71
2023/11/01 05:21:05;;;;;;;;;3.00;2.00;;;;;16.56;100.00;100021.59;4976999;28;72549;-69
2023/11/01 05:23:30;;;;;;;;;2.67;1.00;;;;;16.53;100.00;100019.91;4973877;28;46413;-68
2023/11/01 05:25:55;;;;;;;;;3.33;1.00;;;;;16.58;100.00;100009.13;4977071;28;66560;-69
2023/11/01 05:28:20;;;;;;;;;2.67;2.67;;;;;16.57;100.00;100012.72;4969703;28;46865;-69
2023/11/01 05:30:46;;;;;;;;;1.67;1.67;;;;;16.56;100.00;100005.59;4974126;28;72348;-72
2023/11/01 05:33:12;;;;;;;;;4.33;2.00;;;;;16.53;100.00;100003.03;4974962;28;45306;-69
2023/11/01 05:35:37;;;;;;;;;5.00;2.00;;;;;16.52;100.00;99994.19;4977884;28;45535;-69
2023/11/01 05:38:03;;;;;;;;;2.00;2.00;;;;;16.50;100.00;99988.84;4969969;28;56455;-71
2023/11/01 05:40:29;;;;;;;;;2.00;2.00;;;;;16.50;100.00;99988.84;4974590;28;45885;-71
2023/11/01 05:42:54;;;;;;;;;4.00;1.00;;;;;16.49;100.00;99981.78;4976399;28;45497;-71
2023/11/01 05:45:20;;;;;;;;;3.00;2.00;;;;;16.48;100.00;99985.38;4972647;28;45480;-69
2023/11/01 05:47:50;;;;;;;;;2.33;1.00;;;;;16.49;100.00;99970.25;4971967;28;46543;-69
2023/11/01 05:50:23;;;;;;;;;8.67;2.00;;;;;16.48;100.00;99971.19;4973627;28;45347;-70
2023/11/01 05:52:48;;;;;;;;;4.33;2.00;;;;;16.46;100.00;99965.91;4976207;28;45493;-71
2023/11/01 05:55:15;;;;;;;;;3.67;2.00;;;;;16.42;100.00;99963.34;4976976;28;45430;-69
2023/11/01 05:57:41;;;;;;;;;4.67;2.00;;;;;16.45;100.00;99952.59;4974287;28;46856;-69
2023/11/01 06:00:09;;;;;;;;;2.33;1.33;;;;;16.41;100.00;99951.81;4974921;28;45374;-71
2023/11/01 06:02:36;;;;;;;;;3.00;2.00;;;;;16.37;100.00;99947.50;4975161;28;45497;-70
2023/11/01 06:05:03;;;;;;;;;3.00;1.67;;;;;16.37;100.00;99946.63;4975969;28;45541;-72
2023/11/01 06:07:29;;;;;;;;;3.00;2.00;;;;;16.37;100.00;99941.28;4976247;28;45872;-71
2023/11/01 06:09:55;;;;;;;;;3.33;2.00;;;;;16.37;100.00;99942.16;4976780;28;45426;-70
2023/11/01 06:12:20;;;;;;;;;4.00;2.00;;;;;16.36;100.00;99937.75;4976237;28;45482;-69
2023/11/01 06:14:45;;;;;;;;;2.00;1.00;;;;;16.36;100.00;99934.22;4974473;28;67887;-69
2023/11/01 06:17:10;;;;;;;;;1.00;1.00;;;;;16.37;100.00;99922.63;4976830;28;64712;-69
2023/11/01 06:19:36;;;;;;;;;4.00;1.33;;;;;16.36;100.00;99915.56;4975758;28;71683;-69
2023/11/01 06:22:04;;;;;;;;;1.00;1.00;;;;;16.40;100.00;99922.53;4966175;28;69092;-68
2023/11/01 06:24:31;;;;;;;;;2.00;2.00;;;;;16.36;100.00;99916.44;4968022;28;45566;-68
2023/11/01 06:26:57;;;;;;;;;2.33;1.00;;;;;16.36;100.00;99928.88;4975426;28;47624;-68
2023/11/01 06:29:22;;;;;;;;;5.67;1.00;;;;;16.36;100.00;99931.56;4971372;28;45535;-71
2023/11/01 06:31:48;;;;;;;;;2.00;1.00;;;;;16.33;100.00;99931.63;4976056;28;63628;-68
2023/11/01 06:34:13;;;;;;;;;5.33;2.00;;;;;16.37;100.00;99946.63;5092015;22;68548;-68
2023/11/01 06:36:38;;;;;;;;;2.67;1.33;;;;;16.35;100.00;99941.34;4974876;28;45740;-68
2023/11/01 06:39:04;;;;;;;;;2.00;2.00;;;;;16.34;100.00;99949.34;4973998;28;45482;-70
2023/11/01 06:41:29;;;;;;;;;6.67;2.67;;;;;16.33;100.00;99947.59;4974350;28;45702;-68
2023/11/01 06:43:54;;;;;;;;;4.33;2.00;;;;;16.32;100.00;99945.88;4974126;28;67942;-68
2023/11/01 06:46:20;;;;;;;;;1.00;1.00;;;;;16.31;100.00;99937.00;4971860;28;74001;-69
2023/11/01 06:48:45;;;;;;;;;3.00;1.33;;;;;16.34;100.00;99949.34;4974968;28;49968;-69
2023/11/01 06:51:10;;;;;;;;;3.00;1.00;;;;;16.32;100.00;99945.88;4974220;28;67837;-68
2023/11/01 06:53:36;;;;;;;;;2.33;2.00;;;;;16.33;100.00;99936.94;4973971;28;45617;-68
2023/11/01 06:56:03;;;;;;;;;4.00;2.00;;;;;16.32;100.00;99952.06;4969127;28;75628;-68
2023/11/01 06:58:29;;;;;;;;;2.00;1.00;;;;;16.29;100.00;99946.81;4974638;28;45422;-68
2023/11/01 07:00:54;;;;;;;;;3.00;2.00;;;;;16.31;100.00;99947.66;4967099;28;65552;-70
2023/11/01 07:03:20;;;;;;;;;4.67;2.00;;;;;16.30;100.00;99942.34;4971240;28;45382;-68
2023/11/01 07:05:45;;;;;;;;;7.00;2.67;;;;;16.32;100.00;99937.88;4973872;28;72018;-68
2023/11/01 07:08:10;;;;;;;;;3.00;1.00;;;;;16.29;100.00;99935.28;4976009;28;45333;-68
2023/11/01 07:10:36;;;;;;;;;4.00;2.00;;;;;16.30;100.00;99921.03;4986199;28;66343;-70
2023/11/01 07:13:01;;;;;;;;;2.00;2.00;;;;;16.30;100.00;99927.25;4974568;28;66916;-70
2023/11/01 07:15:26;;;;;;;;;1.00;1.00;;;;;16.30;100.00;99932.59;4975700;28;46450;-68
2023/11/01 07:17:52;;;;;;;;;1.00;1.00;;;;;16.33;100.00;99936.94;4976086;28;45229;-68
2023/11/01 07:20:17;;;;;;;;;2.67;1.00;;;;;16.32;100.00;99924.56;4975172;28;45141;-70
2023/11/01 07:22:43;;;;;;;;;2.33;2.33;;;;;16.31;100.00;99922.81;4972275;28;45485;-70
2023/11/01 07:25:08;;;;;;;;;2.33;2.00;;;;;16.33;100.00;99929.84;4973275;28;45614;-68
2023/11/01 07:27:33;;;;;;;;;2.33;1.00;;;;;16.36;100.00;99912.91;4974604;28;45323;-70
2023/11/01 07:29:59;;;;;;;;;1.00;1.00;;;;;16.35;100.00;99916.47;4969624;28;45428;-70
2023/11/01 07:32:24;;;;;;;;;1.33;1.33;;;;;16.35;100.00;99905.81;4974762;28;56359;-72
2023/11/01 07:34:49;;;;;;;;;5.00;1.67;;;;;16.36;100.00;99910.25;4970723;28;61482;-71
2023/11/01 07:37:15;;;;;;;;;3.67;1.00;;;;;16.37;100.00;99910.19;4971784;28;73200;-69
2023/11/01 07:39:40;;;;;;;;;4.67;1.67;;;;;16.38;100.00;99906.59;4975947;28;45734;-68
2023/11/01 07:42:05;;;;;;;;;2.67;0.00;;;;;16.36;100.00;99894.25;4973873;28;67601;-70
2023/11/01 07:44:31;;;;;;;;;4.33;1.00;;;;;16.39;100.00;99895.03;4974730;28;69718;-68
2023/11/01 07:46:56;;;;;;;;;4.00;2.00;;;;;16.42;100.00;99894.06;4972340;28;73481;-71
2023/11/01 07:49:21;;;;;;;;;4.33;1.00;;;;;16.41;100.00;99884.34;4974908;28;65478;-69
2023/11/01 07:51:47;;;;;;;;;3.00;1.00;;;;;16.40;100.00;99880.78;4971923;28;45445;-72
2023/11/01 07:54:13;;;;;;;;;3.00;1.00;;;;;16.41;100.00;99881.69;4974935;28;67785;-68
2023/11/01 07:56:38;;;;;;;;;2.67;1.00;;;;;16.43;100.00;99877.16;4969170;28;45462;-68
2023/11/01 07:59:03;;;;;;;;;2.00;1.00;;;;;16.45;100.00;99878.00;4974308;28;45446;-68
2023/11/01 08:01:31;;;;;;;;;5.00;1.67;;;;;16.51;100.00;99872.47;4973123;28;45599;-68
2023/11/01 08:03:56;;;;;;;;;4.33;2.00;;;;;16.51;100.00;99864.47;4973891;28;46815;-68
2023/11/01 08:06:22;;;;;;;;;1.67;1.67;;;;;16.53;100.00;99868.00;4972267;28;70619;-69
2023/11/01 08:08:47;;;;;;;;;3.00;1.00;;;;;16.55;100.00;99852.81;4974304;28;62807;-67
2023/11/01 08:11:12;;;;;;;;;3.00;1.00;;;;;16.55;100.00;99859.94;4970102;28;45511;-71
2023/11/01 08:13:38;;;;;;;;;1.00;1.00;;;;;16.57;100.00;99844.81;4974632;28;45843;-68
2023/11/01 08:16:03;;;;;;;;;1.67;1.67;;;;;16.58;100.00;99852.75;4974674;28;73606;-69
2023/11/01 08:18:31;;;;;;;;;1.00;1.00;;;;;16.60;100.00;99850.91;4972571;28;45974;-69
2023/11/01 08:20:56;;;;;;;;;1.33;1.33;;;;;16.61;100.00;99844.66;4975160;28;45655;-68
2023/11/01 08:23:21;;;;;;;;;2.00;1.00;;;;;16.64;100.00;99847.22;4967003;28;46539;-68
2023/11/01 08:25:47;;;;;;;;;1.00;1.00;;;;;16.71;100.00;99850.63;4974259;28;47031;-68
2023/11/01 08:28:12;;;;;;;;;1.67;0.33;;;;;16.72;100.00;99834.59;4974782;28;65128;-68
2023/11/01 08:30:37;;;;;;;;;2.00;2.00;;;;;16.78;100.00;99838.88;4971908;28;61099;-68
2023/11/01 08:33:03;;;;;;;;;2.00;2.00;;;;;16.82;100.00;99839.63;4973021;28;73385;-70
2023/11/01 08:35:29;;;;;;;;;1.00;1.00;;;;;16.85;100.00;99826.22;4966379;28;72493;-70
2023/11/01 08:37:55;;;;;;;;;5.00;2.00;;;;;16.87;100.00;99827.91;4971830;28;45306;-68
2023/11/01 08:40:21;;;;;;;;;2.33;1.00;;;;;16.97;100.00;99825.81;4972916;28;50489;-68
2023/11/01 08:42:46;;;;;;;;;3.00;1.00;;;;;17.03;100.00;99828.31;4973496;28;45599;-67
2023/11/01 08:45:12;;;;;;;;;1.67;1.00;;;;;17.06;100.00;99809.53;4974456;28;71796;-69
2023/11/01 08:47:39;;;;;;;;;1.00;1.00;;;;;17.08;100.00;99823.69;4971560;28;45418;-68
2023/11/01 08:50:06;;;;;;;;;1.67;1.00;;;;;17.14;100.00;99822.63;4974700;28;45553;-69
2023/11/01 08:52:32;;;;;;;;;2.00;0.67;;;;;17.15;100.00;99819.94;4974007;28;46718;-68
2023/11/01 08:54:59;;;;;;;;;1.00;1.00;;;;;17.20;100.00;99814.41;4970430;28;45316;-68
2023/11/01 08:57:25;;;;;;;;;1.00;1.00;;;;;17.19;100.00;99813.53;4974602;28;45507;-70
2023/11/01 08:59:51;;;;;;;;;1.67;1.00;;;;;17.23;100.00;99811.66;4974346;28;45619;-68
2023/11/01 09:02:17;;;;;;;;;2.00;1.00;;;;;17.25;100.00;99815.13;4973782;28;45390;-68
2023/11/01 09:04:43;;;;;;;;;1.67;1.33;;;;;17.31;100.00;99806.06;4970473;28;45600;-69
2023/11/01 09:07:09;;;;;;;;;2.00;2.00;;;;;17.32;100.00;99810.50;4969068;28;45545;-69
2023/11/01 09:09:35;;;;;;;;;4.33;1.00;;;;;17.29;100.00;99801.66;4971335;28;45472;-68
2023/11/01 09:12:00;;;;;;;;;1.00;1.00;;;;;17.31;100.00;99809.63;4967757;28;47868;-70
2023/11/01 09:14:25;;;;;;;;;4.00;1.00;;;;;17.30;100.00;99791.84;4967669;28;67630;-68
2023/11/01 09:16:51;;;;;;;;;3.00;1.67;;;;;17.28;100.00;99797.25;4971200;28;58706;-69
2023/11/01 09:19:16;;;;;;;;;0.00;0.00;;;;;17.29;100.00;99787.44;4973389;28;45623;-69
2023/11/01 09:21:41;;;;;;;;;0.00;0.00;;;;;17.27;100.00;99770.63;4967593;28;64815;-71
2023/11/01 09:24:07;;;;;;;;;2.33;0.33;;;;;17.19;100.00;99770.88;4966360;28;45748;-70
2023/11/01 09:26:32;;;;;;;;;1.00;1.00;;;;;17.09;100.00;99780.09;4963804;28;45533;-69
2023/11/01 09:28:58;;;;;;;;;2.00;0.00;;;;;17.09;100.00;99776.56;4968488;28;52810;-70
2023/11/01 09:31:23;;;;;;;;;0.00;0.00;;;;;17.09;100.00;99780.09;4959381;28;46762;-71
2023/11/01 09:33:49;;;;;;;;;2.00;0.33;;;;;17.07;100.00;99778.41;4962031;28;69171;-71
2023/11/01 09:36:15;;;;;;;;;3.00;0.00;;;;;17.08;100.00;99782.81;4970390;28;45698;-70
2023/11/01 09:38:40;;;;;;;;;1.00;1.00;;;;;17.10;100.00;99779.19;4964942;28;45453;-71
2023/11/01 09:41:09;;;;;;;;;3.33;0.00;;;;;17.06;100.00;99772.22;4962602;28;70516;-71
2023/11/01 09:43:37;;;;;;;;;1.00;1.00;;;;;17.03;100.00;99780.28;4965991;28;45474;-72
2023/11/01 09:46:06;;;;;;;;;1.00;1.00;;;;;17.02;100.00;99791.88;4967537;28;46009;-76
2023/11/01 09:48:32;;;;;;;;;2.00;2.00;;;;;17.03;100.00;99796.28;4953151;28;45582;-74
2023/11/01 09:50:57;;;;;;;;;1.67;0.00;;;;;17.06;100.00;99798.88;4949783;28;46899;-70
2023/11/01 09:53:23;;;;;;;;;1.00;1.00;;;;;17.12;100.00;99793.34;4954307;28;73219;-70
2023/11/01 09:55:49;;;;;;;;;3.67;1.00;;;;;17.10;100.00;99792.53;4958786;28;45543;-74
2023/11/01 09:58:18;;;;;;;;;1.00;0.67;;;;;17.13;100.00;99795.06;4962738;28;46064;-74
2023/11/01 10:00:44;;;;;;;;;3.67;1.00;;;;;17.15;100.00;99795.03;4959471;28;46480;-74
2023/11/01 10:03:10;;;;;;;;;1.67;1.00;;;;;17.14;100.00;99801.28;4965109;28;45506;-73
2023/11/01 10:05:36;;;;;;;;;1.00;1.00;;;;;17.13;100.00;99787.06;4971123;28;67418;-73
2023/11/01 10:08:01;;;;;;;;;1.00;1.00;;;;;17.11;100.00;99788.06;4963915;28;45447;-71
2023/11/01 10:10:27;;;;;;;;;4.00;0.67;;;;;17.05;100.00;99789.13;4981989;28;46528;-72
2023/11/01 10:12:52;;;;;;;;;0.67;0.67;;;;;17.00;100.00;99783.06;4970395;28;61144;-74
2023/11/01 10:15:21;;;;;;;;;2.00;1.00;;;;;16.98;100.00;99776.91;4970619;28;67587;-71
2023/11/01 10:17:47;;;;;;;;;0.67;0.67;;;;;16.99;100.00;99773.31;4973568;28;45557;-72
2023/11/01 10:20:27;;;;;;;;;1.67;1.00;;;;;17.05;100.00;99782.94;4968833;28;47311;-75
2023/11/01 10:22:52;;;;;;;;;2.00;1.00;;;;;17.00;100.00;99770.63;4964908;28;45949;-73
2023/11/01 10:25:19;;;;;;;;;1.00;1.00;;;;;17.05;100.00;99767.81;4969922;28;45544;-71
2023/11/01 10:27:44;;;;;;;;;2.00;0.00;;;;;17.09;100.00;99756.09;4970547;28;45918;-74
2023/11/01 10:30:10;;;;;;;;;2.00;0.67;;;;;17.08;100.00;99740.13;4969795;28;47285;-72
2023/11/01 10:32:35;;;;;;;;;1.00;1.00;;;;;17.07;100.00;99733.94;4971361;28;45686;-71
2023/11/01 10:35:11;;;;;;;;;4.00;1.00;;;;;17.10;100.00;99754.28;4971063;28;67025;-70
2023/11/01 10:37:36;;;;;;;;;0.00;0.00;;;;;17.11;100.00;99737.38;4986593;28;45683;-71
2023/11/01 10:40:08;;;;;;;;;1.00;0.00;;;;;17.12;100.00;99753.31;4969364;28;74527;-71
2023/11/01 10:42:38;;;;;;;;;0.33;0.33;;;;;17.17;100.00;99750.50;4965071;28;45705;-70
2023/11/01 10:45:04;;;;;;;;;0.00;0.00;;;;;17.17;100.00;99746.03;4968346;28;46099;-70
2023/11/01 10:47:30;;;;;;;;;4.00;0.00;;;;;17.18;100.00;99731.78;4967862;28;45418;-71
2023/11/01 10:49:56;;;;;;;;;0.00;0.00;;;;;17.21;100.00;99746.81;4958088;28;46851;-70
2023/11/01 10:52:24;;;;;;;;;0.00;0.00;;;;;17.19;100.00;99735.31;4968921;28;45570;-70
2023/11/01 10:54:50;;;;;;;;;0.00;0.00;;;;;17.19;100.00;99732.66;4970018;28;45612;-70
2023/11/01 10:57:16;;;;;;;;;2.00;0.00;;;;;17.20;100.00;99737.06;4972090;28;45589;-71
2023/11/01 10:59:49;;;;;;;;;2.67;0.00;;;;;17.18;100.00;99734.44;4972859;28;45979;-70
2023/11/01 11:02:30;;;;;;;;;4.00;1.00;;;;;17.16;100.00;99728.31;4974116;28;45592;-70
2023/11/01 11:05:01;;;;;;;;;1.33;0.33;;;;;17.10;100.00;99728.50;4969138;28;45714;-70
2023/11/01 11:07:45;;;;;;;;;2.00;1.00;;;;;17.08;100.00;99730.34;4971391;28;45858;-71
2023/11/01 11:10:23;;;;;;;;;0.00;0.00;;;;;17.09;100.00;99733.88;4970022;28;46574;-70
2023/11/01 11:13:16;;;;;;;;;2.00;0.00;;;;;17.08;100.00;99734.81;4966866;28;45497;-70
2023/11/01 11:15:47;;;;;;;;;0.00;0.00;;;;;17.12;100.00;99720.44;4968665;28;45641;-69
2023/11/01 11:18:13;;;;;;;;;1.00;1.00;;;;;17.10;100.00;99715.19;4971604;28;45573;-70